Time;durP1;ratioP1;P1;durP2;ratioP2;P2;SDS_P1;SDS_P2;PMS_P1;PMS_P2;Temp;Humidity;BMP_temperature;BMP_pressure;BME280_temperature;BME280_humidity;BME280_pressure;Samples;Min_cycle;Max_cycle;Signal;HPM_P1;HPM_P2
2021/12/23 00:01:37;;;;;;;14.48;9.05;;;-4.50;99.90;;;;;;6225176;28;20080;-81
2021/12/23 00:04:38;;;;;;;13.85;8.80;;;;;;;;;;6207597;28;20128;-81
2021/12/23 00:07:39;;;;;;;12.90;8.27;;;;;;;;;;6236527;28;20026;-81
2021/12/23 00:10:40;;;;;;;11.57;7.60;;;;;;;;;;6226385;28;20030;-83
2021/12/23 00:13:49;;;;;;;12.93;8.52;;;-4.60;99.90;;;;;;6206294;28;20029;-86
2021/12/23 00:17:07;;;;;;;11.45;7.72;;;;;;;;;;6218302;28;20021;-81
2021/12/23 00:23:26;;;;;;;12.98;7.57;;;;;;;;;;6205418;28;20030;-83
2021/12/23 00:26:27;;;;;;;12.13;7.65;;;;;;;;;;6219848;28;20022;-81
2021/12/23 00:29:28;;;;;;;10.90;7.40;;;;;;;;;;6213555;28;20026;-83
2021/12/23 00:32:29;;;;;;;12.60;7.95;;;;;;;;;;6222379;28;20022;-82
2021/12/23 00:35:30;;;;;;;17.92;8.93;;;;;;;;;;6220578;28;20160;-80
2021/12/23 00:38:35;;;;;;;10.70;7.28;;;;;;;;;;6226073;28;20013;-82
2021/12/23 00:41:37;;;;;;;10.38;7.30;;;;;;;;;;6239141;28;20022;-82
2021/12/23 00:44:40;;;;;;;14.73;7.63;;;;;;;;;;6209654;28;20029;-81
2021/12/23 00:47:41;;;;;;;12.73;6.97;;;;;;;;;;6241520;28;20024;-85
2021/12/23 00:50:42;;;;;;;13.20;7.20;;;;;;;;;;6224139;28;20116;-83
2021/12/23 00:53:45;;;;;;;11.65;7.03;;;;;;;;;;6210699;28;20037;-83
2021/12/23 00:56:49;;;;;;;8.40;5.75;;;;;;;;;;6226661;28;20379;-84
2021/12/23 00:59:50;;;;;;;9.00;6.20;;;;;;;;;;6226591;28;20030;-81
2021/12/23 01:02:51;;;;;;;9.68;6.15;;;;;;;;;;6233106;28;20138;-82
2021/12/23 01:05:52;;;;;;;8.40;5.50;;;;;;;;;;6239851;28;20510;-82
2021/12/23 01:08:53;;;;;;;9.15;5.60;;;;;;;;;;6233033;28;20025;-84
2021/12/23 01:11:55;;;;;;;8.35;5.00;;;;;;;;;;6233071;28;20059;-82
2021/12/23 01:15:09;;;;;;;7.70;5.25;;;;;;;;;;6226360;28;20022;-81
2021/12/23 01:18:18;;;;;;;9.40;6.07;;;;;;;;;;6233318;28;20059;-84
2021/12/23 01:21:19;;;;;;;10.43;6.32;;;;;;;;;;6228126;28;20053;-81
2021/12/23 01:24:23;;;;;;;8.43;5.80;;;;;;;;;;6239833;28;20033;-83
2021/12/23 01:27:24;;;;;;;8.98;5.22;;;;;;;;;;6225950;28;20060;-83
2021/12/23 01:30:25;;;;;;;7.38;5.15;;;;;;;;;;6240232;28;20033;-81
2021/12/23 01:33:26;;;;;;;8.95;5.82;;;;;;;;;;6227449;28;20439;-81
2021/12/23 01:36:27;;;;;;;9.07;5.45;;;;;;;;;;6208792;28;20132;-86
2021/12/23 01:39:28;;;;;;;6.53;4.68;;;;;;;;;;6204484;28;20384;-81
2021/12/23 01:42:29;;;;;;;6.90;4.65;;;;;;;;;;6240901;28;20018;-83
2021/12/23 01:45:30;;;;;;;6.07;4.18;;;;;;;;;;6220923;28;20526;-83
2021/12/23 01:48:31;;;;;;;6.70;5.07;;;;;;;;;;6208626;28;20380;-83
2021/12/23 01:51:32;;;;;;;8.00;4.47;;;;;;;;;;6225275;28;20028;-87
2021/12/23 01:54:33;;;;;;;5.40;3.97;;;;;;;;;;6224315;28;20044;-82
2021/12/23 01:57:34;;;;;;;5.93;4.25;;;;;;;;;;6236583;28;20038;-82
2021/12/23 02:00:36;;;;;;;5.82;4.03;;;-2.30;99.90;;;;;;6222874;28;20381;-82
2021/12/23 02:03:37;;;;;;;5.15;3.55;;;-1.90;99.90;;;;;;6198965;28;20053;-82
2021/12/23 02:06:38;;;;;;;6.25;4.10;;;;;;;;;;6194348;28;20384;-82
2021/12/23 02:09:39;;;;;;;7.32;4.03;;;;;;;;;;6222613;28;20056;-83
2021/12/23 02:12:44;;;;;;;5.25;3.78;;;-1.10;99.90;;;;;;6233135;28;20033;-82
2021/12/23 02:15:45;;;;;;;9.10;3.10;;;;;;;;;;6208060;28;20022;-82
2021/12/23 02:18:46;;;;;;;5.82;3.45;;;;;;;;;;6221053;28;20029;-84
2021/12/23 02:21:46;;;;;;;3.65;3.03;;;-0.60;99.90;;;;;;6220219;28;20025;-83
2021/12/23 02:24:47;;;;;;;4.40;2.90;;;;;;;;;;6194652;28;20038;-83
2021/12/23 02:27:48;;;;;;;5.68;3.72;;;;;;;;;;6213906;28;20029;-81
2021/12/23 02:30:53;;;;;;;6.03;3.75;;;-0.40;99.90;;;;;;6230284;28;20495;-79
2021/12/23 02:33:53;;;;;;;4.90;3.17;;;-0.30;99.90;;;;;;6196813;28;20034;-83
2021/12/23 02:36:55;;;;;;;5.28;3.40;;;-0.30;99.90;;;;;;6213325;28;20112;-83
2021/12/23 02:39:56;;;;;;;10.13;5.80;;;-0.60;99.90;;;;;;6208376;28;20030;-81
2021/12/23 02:42:58;;;;;;;11.80;6.25;;;-0.60;99.90;;;;;;6210557;28;20146;-81
2021/12/23 02:45:59;;;;;;;11.90;8.02;;;;;;;;;;6227459;28;20491;-82
2021/12/23 02:49:00;;;;;;;5.30;4.00;;;;;;;;;;6224107;28;20026;-83
2021/12/23 02:52:01;;;;;;;4.35;3.42;;;-0.80;99.90;;;;;;6240389;28;20037;-82
2021/12/23 02:55:02;;;;;;;6.40;4.38;;;;;;;;;;6223745;28;20061;-81
2021/12/23 02:58:03;;;;;;;6.15;4.63;;;-0.90;99.90;;;;;;6210440;28;20025;-82
2021/12/23 03:01:05;;;;;;;6.53;4.22;;;-1.60;99.90;;;;;;6220741;28;20076;-82
2021/12/23 03:04:06;;;;;;;5.05;4.32;;;;;;;;;;6224565;28;20068;-82
2021/12/23 03:07:06;;;;;;;6.70;4.55;;;-1.30;99.90;;;;;;6232180;28;20483;-82
2021/12/23 03:10:08;;;;;;;6.95;4.10;;;-2.10;99.90;;;;;;6209895;28;20036;-83
2021/12/23 03:13:09;;;;;;;6.20;4.20;;;-2.00;99.90;;;;;;6203309;28;20029;-83
2021/12/23 03:16:11;;;;;;;4.75;4.13;;;-2.10;99.90;;;;;;6190611;28;20060;-82
2021/12/23 03:19:12;;;;;;;6.60;4.13;;;;;;;;;;6194322;28;20357;-85
2021/12/23 03:22:13;;;;;;;5.70;4.35;;;;;;;;;;6221294;28;20064;-83
2021/12/23 03:25:14;;;;;;;4.38;3.28;;;;;;;;;;6211582;28;20037;-82
2021/12/23 03:28:15;;;;;;;4.90;3.65;;;;;;;;;;6225540;28;20029;-83
2021/12/23 03:31:16;;;;;;;4.82;3.72;;;;;;;;;;6204066;28;20526;-81
2021/12/23 03:34:17;;;;;;;5.25;3.95;;;-1.40;99.90;;;;;;6203718;28;20034;-81
2021/12/23 03:37:18;;;;;;;6.15;3.67;;;;;;;;;;6214110;28;20056;-82
2021/12/23 03:40:19;;;;;;;5.38;3.70;;;;;;;;;;6228373;28;20476;-82
2021/12/23 03:43:19;;;;;;;5.20;3.58;;;-1.60;99.90;;;;;;6203381;28;20026;-82
2021/12/23 03:46:20;;;;;;;5.88;3.80;;;;;;;;;;6237795;28;20029;-82
2021/12/23 03:49:21;;;;;;;6.50;3.70;;;;;;;;;;6212874;28;20036;-85
2021/12/23 03:52:22;;;;;;;5.38;3.58;;;;;;;;;;6209524;28;20063;-83
2021/12/23 03:55:23;;;;;;;4.35;3.65;;;-1.30;99.90;;;;;;6203125;28;20025;-83
2021/12/23 03:58:23;;;;;;;6.63;4.13;;;-1.40;99.90;;;;;;6201124;28;20045;-82
2021/12/23 04:01:26;;;;;;;5.68;3.78;;;-1.30;99.90;;;;;;6190296;28;20044;-81
2021/12/23 04:04:26;;;;;;;;;;;0.50;99.90;;;;;;6214741;28;20037;-83
2021/12/23 04:07:27;;;;;;;5.30;3.80;;;;;;;;;;6225206;28;20530;-83
2021/12/23 04:10:28;;;;;;;5.45;3.78;;;;;;;;;;6208046;28;20041;-82
2021/12/23 04:13:29;;;;;;;8.13;4.03;;;-1.90;99.90;;;;;;6210419;28;20145;-82
2021/12/23 04:16:30;;;;;;;6.03;4.07;;;;;;;;;;6186411;28;20057;-84
2021/12/23 04:19:32;;;;;;;6.85;4.13;;;;;;;;;;6226785;28;20104;-82
2021/12/23 04:22:33;;;;;;;8.93;5.65;;;-1.80;99.90;;;;;;6213552;28;20456;-84
2021/12/23 04:25:34;;;;;;;5.35;3.75;;;;;;;;;;6207823;28;20132;-83
2021/12/23 04:28:44;;;;;;;4.15;3.45;;;;;;;;;;6207834;28;20022;-84
2021/12/23 04:31:45;;;;;;;7.85;5.38;;;;;;;;;;6221259;28;20456;-81
2021/12/23 04:34:46;;;;;;;24.85;13.60;;;;;;;;;;6210834;28;20036;-82
2021/12/23 04:37:47;;;;;;;19.90;10.20;;;;;;;;;;6264428;28;20045;-83
2021/12/23 04:40:48;;;;;;;15.73;9.90;;;;;;;;;;6241481;28;20100;-83
2021/12/23 04:43:49;;;;;;;8.90;5.85;;;;;;;;;;6238974;28;20517;-83
2021/12/23 04:46:50;;;;;;;9.05;5.85;;;;;;;;;;6218254;28;20030;-82
2021/12/23 04:49:51;;;;;;;7.53;4.50;;;;;;;;;;6242907;28;20033;-81
2021/12/23 04:52:52;;;;;;;16.88;9.32;;;;;;;;;;6219238;28;20086;-82
2021/12/23 04:55:53;;;;;;;11.95;7.82;;;;;;;;;;6238673;28;20028;-81
2021/12/23 04:58:53;;;;;;;10.45;6.30;;;-1.20;99.90;;;;;;6241010;28;20032;-82
2021/12/23 05:01:54;;;;;;;15.07;8.93;;;-1.30;99.90;;;;;;6201003;28;20396;-83
2021/12/23 05:04:54;;;;;;;7.18;5.53;;;-1.00;99.90;;;;;;6192970;28;20068;-83
2021/12/23 05:07:57;;;;;;;6.32;4.43;;;-1.20;99.90;;;;;;6193781;28;20037;-83
2021/12/23 05:10:57;;;;;;;7.55;4.57;;;;;;;;;;6206422;28;20037;-82
2021/12/23 05:13:58;;;;;;;7.75;3.65;;;;;;;;;;6230145;28;20515;-82
2021/12/23 05:16:59;;;;;;;6.25;4.40;;;-0.90;99.90;;;;;;6217369;28;20148;-83
2021/12/23 05:20:00;;;;;;;7.47;3.80;;;;;;;;;;6194045;28;20033;-82
2021/12/23 05:23:01;;;;;;;5.22;3.85;;;-0.80;99.90;;;;;;6227841;28;20095;-81
2021/12/23 05:26:05;;;;;;;6.05;3.72;;;-0.70;99.90;;;;;;6211894;28;20044;-82
2021/12/23 05:29:06;;;;;;;8.57;4.30;;;;;;;;;;6210082;28;20028;-82
2021/12/23 05:32:07;;;;;;;6.90;4.40;;;-1.20;99.90;;;;;;6238839;28;20022;-80
2021/12/23 05:35:08;;;;;;;8.13;5.65;;;-1.00;99.90;;;;;;6233898;28;20033;-83
2021/12/23 05:38:09;;;;;;;5.60;3.95;;;;;;;;;;6213118;28;20116;-82
2021/12/23 05:41:10;;;;;;;5.95;4.40;;;-1.00;99.90;;;;;;6251122;28;20029;-82
2021/12/23 05:44:11;;;;;;;9.40;4.43;;;;;;;;;;6237205;28;20033;-81
2021/12/23 05:47:12;;;;;;;6.88;5.25;;;-0.70;99.90;;;;;;6241887;28;20025;-80
2021/12/23 05:50:13;;;;;;;7.60;4.50;;;-0.50;99.90;;;;;;6220761;28;20471;-83
2021/12/23 05:53:13;;;;;;;8.15;3.75;;;-0.50;99.90;;;;;;6224348;28;20022;-81
2021/12/23 05:56:14;;;;;;;6.55;3.67;;;-0.90;99.90;;;;;;6206434;28;20112;-81
2021/12/23 05:59:14;;;;;;;6.15;3.70;;;-0.90;99.90;;;;;;6217869;28;20376;-82
2021/12/23 06:02:15;;;;;;;8.88;4.85;;;;;;;;;;6220720;28;20034;-82
2021/12/23 06:05:16;;;;;;;7.38;4.32;;;;;;;;;;6236348;28;20502;-83
2021/12/23 06:08:17;;;;;;;9.32;6.57;;;;;;;;;;6235146;28;20055;-82
2021/12/23 06:11:18;;;;;;;7.80;4.70;;;;;;;;;;6218241;28;20037;-82
2021/12/23 06:14:21;;;;;;;5.63;4.00;;;;;;;;;;6222883;28;20048;-82
2021/12/23 06:17:22;;;;;;;6.70;4.75;;;;;;;;;;6225719;28;20030;-81
2021/12/23 06:20:22;;;;;;;6.18;4.25;;;-0.10;99.90;;;;;;6245545;28;20072;-80
2021/12/23 06:23:25;;;;;;;5.90;4.00;;;;;;;;;;6233927;28;20053;-82
2021/12/23 06:26:26;;;;;;;6.55;3.95;;;;;;;;;;6245975;28;20029;-84
2021/12/23 06:29:27;;;;;;;13.32;8.10;;;;;;;;;;6234140;28;20033;-84
2021/12/23 06:32:28;;;;;;;11.98;5.93;;;;;;;;;;6238067;28;20399;-84
2021/12/23 06:35:29;;;;;;;7.72;4.40;;;;;;;;;;6229654;28;20433;-83
2021/12/23 06:38:30;;;;;;;8.68;4.63;;;-0.20;99.90;;;;;;6229780;28;20077;-82
2021/12/23 06:41:31;;;;;;;9.05;5.35;;;;;;;;;;6200460;28;20053;-83
2021/12/23 06:44:31;;;;;;;9.05;4.93;;;0.00;99.90;;;;;;6228300;28;20433;-82
2021/12/23 06:47:33;;;;;;;6.90;4.22;;;0.00;99.90;;;;;;6204601;28;20079;-82
2021/12/23 06:50:35;;;;;;;7.47;4.70;;;;;;;;;;6196797;28;20501;-81
2021/12/23 06:53:36;;;;;;;8.93;5.13;;;;;;;;;;6233812;28;20026;-82
2021/12/23 06:56:37;;;;;;;8.73;5.50;;;;;;;;;;6212390;28;20056;-81
2021/12/23 06:59:38;;;;;;;8.05;5.53;;;;;;;;;;6220431;28;20072;-81
2021/12/23 07:02:40;;;;;;;9.77;5.95;;;;;;;;;;6246351;28;20021;-82
2021/12/23 07:05:41;;;;;;;10.93;6.60;;;;;;;;;;6235299;28;20040;-82
2021/12/23 07:08:42;;;;;;;9.02;5.95;;;-0.30;99.90;;;;;;6224709;28;20025;-81
2021/12/23 07:11:43;;;;;;;9.07;6.47;;;;;;;;;;6201566;28;20740;-81
2021/12/23 07:14:43;;;;;;;7.50;5.30;;;-0.20;99.90;;;;;;6218015;28;20030;-82
2021/12/23 07:17:44;;;;;;;11.95;7.45;;;0.10;99.90;;;;;;6206050;28;20526;-82
2021/12/23 07:20:45;;;;;;;8.10;5.70;;;;;;;;;;6227475;28;20056;-82
2021/12/23 07:23:46;;;;;;;11.43;5.78;;;0.40;99.90;;;;;;6223928;28;20117;-82
2021/12/23 07:26:47;;;;;;;7.78;4.97;;;0.10;99.90;;;;;;6195287;28;20030;-82
2021/12/23 07:29:48;;;;;;;13.82;6.72;;;0.40;99.90;;;;;;6215426;28;20049;-81
2021/12/23 07:32:49;;;;;;;7.90;5.35;;;0.70;99.90;;;;;;6217650;28;20029;-82
2021/12/23 07:35:49;;;;;;;7.38;5.40;;;;;;;;;;6200487;28;20057;-80
2021/12/23 07:38:50;;;;;;;10.05;5.32;;;0.90;99.90;;;;;;6210773;28;20112;-82
2021/12/23 07:41:51;;;;;;;19.55;9.95;;;0.90;99.90;;;;;;6194917;28;20025;-82
2021/12/23 07:44:52;;;;;;;10.38;5.75;;;;;;;;;;6231548;28;20056;-81
2021/12/23 07:47:53;;;;;;;7.03;5.15;;;;;;;;;;6214489;28;20384;-80
2021/12/23 07:50:54;;;;;;;7.13;5.28;;;1.10;99.90;;;;;;6227037;28;20033;-80
2021/12/23 07:53:55;;;;;;;10.75;6.75;;;1.60;99.90;;;;;;6226617;28;20040;-80
2021/12/23 07:56:56;;;;;;;9.98;5.18;;;1.10;99.90;;;;;;6206988;28;20025;-82
2021/12/23 07:59:58;;;;;;;9.32;5.15;;;1.30;99.90;;;;;;6239353;28;20034;-81
2021/12/23 08:02:59;;;;;;;;;;;2.80;99.90;;;;;;6211486;28;20083;-80
2021/12/23 08:06:00;;;;;;;8.90;6.00;;;2.40;99.90;;;;;;6240143;28;19913;-81
2021/12/23 08:09:00;;;;;;;13.00;7.85;;;2.40;99.90;;;;;;6250235;28;20025;-80
2021/12/23 08:12:05;;;;;;;9.65;5.97;;;2.50;99.90;;;;;;6250359;28;20056;-83
2021/12/23 08:15:06;;;;;;;11.98;5.57;;;2.40;99.90;;;;;;6204853;28;20037;-80
2021/12/23 08:18:07;;;;;;;13.05;7.57;;;;;;;;;;6226402;28;20052;-81
2021/12/23 08:21:08;;;;;;;8.30;5.63;;;;;;;;;;6210279;28;20453;-80
2021/12/23 08:24:09;;;;;;;8.73;5.80;;;;;;;;;;6239868;28;20037;-79
2021/12/23 08:27:10;;;;;;;10.25;6.95;;;2.70;99.90;;;;;;6249615;28;20033;-81
2021/12/23 08:30:12;;;;;;;10.77;6.68;;;2.70;99.90;;;;;;6233870;28;20125;-81
2021/12/23 08:33:12;;;;;;;10.63;6.05;;;3.10;99.90;;;;;;6206012;28;20083;-81
2021/12/23 08:36:13;;;;;;;9.30;5.85;;;3.10;99.90;;;;;;6209885;28;20058;-80
2021/12/23 08:39:15;;;;;;;8.43;6.00;;;3.50;99.90;;;;;;6194540;28;20115;-80
2021/12/23 08:42:15;;;;;;;12.27;7.82;;;3.70;99.90;;;;;;6225724;28;20060;-79
2021/12/23 08:45:17;;;;;;;12.63;6.75;;;3.90;99.90;;;;;;6225368;28;20540;-79
2021/12/23 08:48:17;;;;;;;19.55;11.20;;;4.00;99.90;;;;;;6214563;28;20025;-79
2021/12/23 08:51:18;;;;;;;7.20;5.50;;;;;;;;;;6245051;28;20041;-78
2021/12/23 08:54:19;;;;;;;15.05;11.43;;;3.80;99.90;;;;;;6266953;28;20021;-79
2021/12/23 08:57:20;;;;;;;7.50;5.03;;;4.90;99.90;;;;;;6230899;28;20574;-80
2021/12/23 09:00:21;;;;;;;6.65;5.88;;;;;;;;;;6237316;28;20384;-79
2021/12/23 09:03:21;;;;;;;6.10;5.00;;;5.80;99.90;;;;;;6234717;28;20036;-79
2021/12/23 09:06:22;;;;;;;5.53;4.13;;;7.20;99.90;;;;;;6209272;28;20041;-79
2021/12/23 09:09:24;;;;;;;15.20;13.70;;;5.90;99.90;;;;;;6225329;28;20043;-79
2021/12/23 09:12:25;;;;;;;5.57;4.55;;;6.90;99.90;;;;;;6208792;28;20041;-80
2021/12/23 09:15:26;;;;;;;6.70;4.63;;;7.50;99.90;;;;;;6209753;28;20038;-79
2021/12/23 09:18:26;;;;;;;4.78;4.03;;;6.40;99.90;;;;;;6225418;28;20537;-79
2021/12/23 09:21:27;;;;;;;4.03;3.40;;;6.50;99.90;;;;;;6224296;28;20038;-79
2021/12/23 09:24:28;;;;;;;5.65;4.32;;;6.60;99.90;;;;;;6225378;28;20495;-80
2021/12/23 09:27:40;;;;;;;5.15;4.30;;;6.80;99.90;;;;;;6224209;28;20511;-81
2021/12/23 09:34:00;;;;;;;5.72;4.20;;;6.50;99.90;;;;;;6225798;28;19913;-80
2021/12/23 09:37:01;;;;;;;7.68;3.45;;;6.30;99.90;;;;;;6223696;28;20052;-81
2021/12/23 09:40:03;;;;;;;3.58;3.20;;;6.30;99.90;;;;;;6223857;28;20105;-81
2021/12/23 09:43:06;;;;;;;4.75;3.15;;;6.30;99.90;;;;;;6212233;28;20060;-81
2021/12/23 09:46:09;;;;;;;4.68;3.83;;;6.30;99.90;;;;;;6223971;28;20079;-80
2021/12/23 09:49:09;;;;;;;5.47;3.30;;;6.30;99.90;;;;;;6203158;28;20056;-80
2021/12/23 09:52:10;;;;;;;5.65;4.00;;;6.30;99.90;;;;;;6217687;28;20033;-80
2021/12/23 09:55:11;;;;;;;9.63;5.85;;;6.50;99.90;;;;;;6209159;28;20033;-80
2021/12/23 09:58:12;;;;;;;30.27;9.02;;;6.60;99.90;;;;;;6212788;28;20029;-80
2021/12/23 10:01:12;;;;;;;7.93;5.32;;;6.60;99.90;;;;;;6223593;28;20519;-80
2021/12/23 10:04:13;;;;;;;5.85;4.22;;;6.80;99.90;;;;;;6239263;28;20120;-85
2021/12/23 10:07:13;;;;;;;8.27;4.75;;;7.00;99.90;;;;;;6208115;28;20038;-79
2021/12/23 10:10:23;;;;;;;13.05;9.60;;;7.40;99.90;;;;;;6250044;28;20130;-81
2021/12/23 10:30:27;;;;;;;4.68;3.25;;;7.50;99.90;;;;;;6188359;28;20498;-79
2021/12/23 10:33:46;;;;;;;20.38;3.63;;;;;;;;;;6213853;28;20467;-80
2021/12/23 10:40:16;;;;;;;4.75;3.45;;;7.50;99.90;;;;;;6230491;28;20041;-81
2021/12/23 10:43:22;;;;;;;5.85;3.25;;;7.40;99.90;;;;;;6228075;28;20029;-81
2021/12/23 10:46:30;;;;;;;3.42;3.10;;;8.10;99.90;;;;;;6246307;28;20087;-80
2021/12/23 10:49:47;;;;;;;4.90;3.45;;;7.50;99.90;;;;;;6218996;28;20033;-79
2021/12/23 10:52:53;;;;;;;4.25;3.13;;;7.50;97.40;;;;;;6249295;28;20103;-79
2021/12/23 10:59:41;;;;;;;4.70;3.10;;;7.90;99.90;;;;;;6217643;28;20049;-80
2021/12/23 11:03:09;;;;;;;4.95;3.20;;;8.00;97.90;;;;;;6246242;28;20110;-80
2021/12/23 11:30:25;;;;;;;4.82;2.85;;;8.30;99.90;;;;;;6229507;28;20112;-81
2021/12/23 11:42:31;;;;;;;4.15;2.70;;;9.30;93.60;;;;;;6241322;28;20033;-79
2021/12/23 11:45:32;;;;;;;5.85;3.50;;;8.80;92.30;;;;;;6214790;28;20375;-80
2021/12/23 11:48:40;;;;;;;4.07;3.03;;;9.10;92.40;;;;;;6244869;28;20043;-80
2021/12/23 11:54:52;;;;;;;6.32;4.28;;;9.70;96.20;;;;;;6213693;28;20116;-79
2021/12/23 11:57:53;;;;;;;4.00;3.22;;;9.60;90.90;;;;;;6234200;28;20377;-80
2021/12/23 12:01:08;;;;;;;4.10;2.88;;;9.80;90.80;;;;;;6227357;28;20037;-81
2021/12/23 12:04:10;;;;;;;5.07;2.95;;;10.20;89.70;;;;;;6210626;28;20049;-80
2021/12/23 12:07:16;;;;;;;10.02;3.30;;;10.50;87.00;;;;;;6223457;28;20517;-80
2021/12/23 12:10:21;;;;;;;3.35;3.00;;;10.90;94.70;;;;;;6210975;28;20483;-79
2021/12/23 12:13:29;;;;;;;3.70;3.30;;;11.00;84.00;;;;;;6226245;28;20075;-81
2021/12/23 12:16:34;;;;;;;6.70;4.70;;;11.20;81.80;;;;;;6234570;28;20040;-80
2021/12/23 12:19:57;;;;;;;4.75;3.25;;;11.40;80.60;;;;;;6211100;28;20042;-82
2021/12/23 12:23:10;;;;;;;14.07;4.10;;;11.30;80.50;;;;;;6227472;28;20068;-80
2021/12/23 12:26:24;;;;;;;5.10;3.40;;;11.30;80.90;;;;;;6226852;28;20124;-82
2021/12/23 12:29:25;;;;;;;8.10;4.90;;;11.10;82.90;;;;;;6228361;28;20480;-81
2021/12/23 12:32:36;;;;;;;6.10;4.03;;;10.90;85.40;;;;;;6210781;28;20025;-79
2021/12/23 12:35:36;;;;;;;6.45;4.22;;;10.90;87.60;;;;;;6209660;28;20120;-80
2021/12/23 12:38:46;;;;;;;6.53;3.40;;;10.50;88.30;;;;;;6243857;28;20098;-82
2021/12/23 12:41:47;;;;;;;4.30;3.25;;;10.30;87.90;;;;;;6231551;28;20391;-79
2021/12/23 12:45:02;;;;;;;4.43;3.30;;;9.90;95.50;;;;;;6209407;28;20079;-81
2021/12/23 12:48:04;;;;;;;6.55;3.08;;;9.70;99.90;;;;;;6228364;28;20021;-81
2021/12/23 12:51:18;;;;;;;4.28;2.92;;;10.00;99.90;;;;;;6208641;28;20033;-81
2021/12/23 12:54:32;;;;;;;4.82;3.40;;;9.70;98.30;;;;;;6226456;28;20038;-79
2021/12/23 12:57:39;;;;;;;6.75;3.50;;;10.30;91.20;;;;;;6226976;28;20073;-79
2021/12/23 13:00:42;;;;;;;6.80;3.58;;;9.60;91.30;;;;;;6218567;28;20037;-79
2021/12/23 13:03:53;;;;;;;8.80;3.20;;;9.30;99.90;;;;;;6243953;28;20407;-79
2021/12/23 13:06:54;;;;;;;4.07;2.80;;;9.30;99.90;;;;;;6216751;28;20116;-81
2021/12/23 13:10:04;;;;;;;6.23;3.73;;;9.30;97.60;;;;;;6232258;28;20025;-80
2021/12/23 13:13:08;;;;;;;7.00;3.20;;;9.40;92.30;;;;;;6211509;28;20038;-79
2021/12/23 13:16:12;;;;;;;5.35;2.88;;;9.50;92.40;;;;;;6222255;28;20446;-79
2021/12/23 13:19:19;;;;;;;8.07;3.65;;;9.50;92.20;;;;;;6249312;28;20029;-81
2021/12/23 13:22:22;;;;;;;7.93;3.97;;;9.50;99.30;;;;;;6230685;28;20036;-81
2021/12/23 13:25:22;;;;;;;5.78;3.65;;;10.00;92.50;;;;;;6226174;28;20377;-80
2021/12/23 13:28:35;;;;;;;7.75;4.22;;;9.70;92.20;;;;;;6225572;28;20029;-81
2021/12/23 13:31:36;;;;;;;8.80;4.03;;;9.70;92.10;;;;;;6225987;28;20061;-80
2021/12/23 13:34:37;;;;;;;6.67;3.10;;;9.80;92.00;;;;;;6192906;28;20483;-80
2021/12/23 13:37:42;;;;;;;3.83;2.97;;;9.80;92.50;;;;;;6225320;28;20045;-80
2021/12/23 13:40:47;;;;;;;4.72;3.10;;;9.70;92.60;;;;;;6231100;28;20033;-80
2021/12/23 13:43:47;;;;;;;6.22;3.80;;;9.70;92.20;;;;;;6226476;28;20025;-80
2021/12/23 13:47:00;;;;;;;7.45;3.10;;;9.60;93.20;;;;;;6247745;28;21039;-80
2021/12/23 13:50:01;;;;;;;;;;;9.40;93.00;;;;;;6230231;28;20558;-80
2021/12/23 13:53:01;;;;;;;13.90;8.75;;;9.40;93.20;;;;;;6249275;28;19959;-80
2021/12/23 13:56:02;;;;;;;6.55;3.25;;;9.40;93.10;;;;;;6230964;28;20476;-80
2021/12/23 13:59:29;;;;;;;5.25;3.40;;;9.40;93.50;;;;;;6197119;28;20052;-80
2021/12/23 14:02:30;;;;;;;5.75;3.60;;;9.50;93.40;;;;;;6243786;28;20045;-80
2021/12/23 14:05:31;;;;;;;4.80;3.97;;;9.50;93.30;;;;;;6229966;28;20049;-80
2021/12/23 14:08:32;;;;;;;5.10;3.95;;;9.50;93.20;;;;;;6213027;28;20037;-80
2021/12/23 14:11:33;;;;;;;4.93;3.45;;;9.60;93.30;;;;;;6213472;28;20033;-82
2021/12/23 14:14:34;;;;;;;4.20;3.40;;;9.60;93.00;;;;;;6212373;28;20037;-83
2021/12/23 14:17:39;;;;;;;6.30;3.25;;;9.60;93.90;;;;;;6196837;28;20037;-81
2021/12/23 14:23:57;;;;;;;6.43;3.38;;;;;;;;;;6230684;28;20479;-78
2021/12/23 14:26:58;;;;;;;5.18;3.08;;;9.30;99.90;;;;;;6229581;28;20030;-79
2021/12/23 14:30:03;;;;;;;8.70;3.28;;;9.40;99.90;;;;;;6211907;28;20064;-78
2021/12/23 14:33:12;;;;;;;7.47;4.00;;;9.20;99.90;;;;;;6228839;28;20037;-79
2021/12/23 14:36:33;;;;;;;4.55;3.35;;;9.30;96.90;;;;;;6229062;28;20081;-79
2021/12/23 14:39:36;;;;;;;5.05;3.65;;;9.30;99.90;;;;;;6246252;28;20072;-79
2021/12/23 14:42:37;;;;;;;5.45;3.10;;;;;;;;;;6212700;28;20034;-79
2021/12/23 14:45:38;;;;;;;7.55;3.20;;;9.30;97.30;;;;;;6228682;28;20049;-79
2021/12/23 14:49:29;;;;;;;6.22;3.10;;;9.40;93.60;;;;;;6204370;28;20033;-79
2021/12/23 14:52:19;;;;;;;4.45;3.20;;;9.50;99.90;;;;;;6238164;28;20060;-86
2021/12/23 14:55:20;;;;;;;3.60;2.90;;;9.40;99.10;;;;;;6231289;28;20116;-82
2021/12/23 14:58:21;;;;;;;4.15;3.33;;;9.60;93.50;;;;;;6212841;28;20061;-84
2021/12/23 15:01:22;;;;;;;26.70;4.38;;;9.70;93.60;;;;;;6216990;28;20037;-82
2021/12/23 15:04:23;;;;;;;8.60;3.83;;;9.70;99.10;;;;;;6217699;28;20037;-86
2021/12/23 15:07:23;;;;;;;6.60;3.38;;;9.90;96.70;;;;;;6195884;28;20029;-80
2021/12/23 15:10:37;;;;;;;7.05;3.20;;;10.00;95.40;;;;;;6228100;28;20037;-80
2021/12/23 15:13:42;;;;;;;5.60;4.22;;;10.00;93.40;;;;;;6221657;28;20497;-80
2021/12/23 15:16:43;;;;;;;9.85;4.43;;;12.10;99.90;;;;;;6247051;28;20432;-85
2021/12/23 15:19:50;;;;;;;7.30;5.55;;;9.80;93.00;;;;;;6197007;28;20109;-81
2021/12/23 15:22:51;;;;;;;16.58;5.10;;;9.60;99.90;;;;;;6215397;28;20029;-80
2021/12/23 15:25:52;;;;;;;12.07;7.43;;;9.70;93.30;;;;;;6209767;28;20104;-80
2021/12/23 15:29:12;;;;;;;6.88;4.45;;;9.60;99.90;;;;;;6226857;28;20033;-83
2021/12/23 15:32:21;;;;;;;4.43;3.53;;;9.50;98.70;;;;;;6227694;28;20033;-80
2021/12/23 15:35:25;;;;;;;5.68;3.13;;;9.60;93.80;;;;;;6244155;28;20116;-82
2021/12/23 15:38:25;;;;;;;5.35;2.90;;;9.60;94.70;;;;;;6227259;28;20388;-79
2021/12/23 15:41:26;;;;;;;5.65;3.28;;;;;;;;;;6226484;28;20037;-80
2021/12/23 15:44:28;;;;;;;3.70;2.95;;;9.80;99.90;;;;;;6227579;28;20080;-83
2021/12/23 15:47:29;;;;;;;7.28;4.63;;;9.70;95.10;;;;;;6195310;28;20033;-80
2021/12/23 15:50:31;;;;;;;7.10;4.20;;;9.70;94.80;;;;;;6227081;28;20418;-78
2021/12/23 15:53:32;;;;;;;;;;;9.60;95.10;;;;;;6227386;28;20116;-79
2021/12/23 15:56:33;;;;;;;5.88;3.50;;;9.60;95.60;;;;;;6226236;28;19943;-81
2021/12/23 15:59:34;;;;;;;8.73;4.03;;;;;;;;;;6210101;28;20037;-80
2021/12/23 16:02:34;;;;;;;5.18;4.07;;;9.60;95.20;;;;;;6233567;28;20037;-78
2021/12/23 16:08:36;;;;;;;14.68;10.40;;;;;;;;;;6210876;28;20033;-82
2021/12/23 16:11:37;;;;;;;4.90;3.80;;;10.00;99.90;;;;;;6221919;28;20491;-80
2021/12/23 16:14:37;;;;;;;5.88;4.15;;;9.70;99.90;;;;;;6213446;28;20037;-79
2021/12/23 16:17:38;;;;;;;3.90;3.30;;;9.80;99.90;;;;;;6196577;28;20059;-79
2021/12/23 16:20:39;;;;;;;7.68;4.00;;;10.00;99.90;;;;;;6194077;28;20053;-81
2021/12/23 16:23:40;;;;;;;3.50;3.10;;;10.30;99.90;;;;;;6227929;28;20457;-79
2021/12/23 16:26:40;;;;;;;6.25;3.70;;;9.80;99.90;;;;;;6212986;28;20033;-80
2021/12/23 16:30:19;;;;;;;4.82;3.25;;;10.00;99.90;;;;;;6226516;28;20025;-79
2021/12/23 16:33:20;;;;;;;8.20;4.20;;;;;;;;;;6244314;28;20030;-80
2021/12/23 16:36:21;;;;;;;3.95;3.10;;;9.70;99.90;;;;;;6225782;28;20060;-80
2021/12/23 16:39:22;;;;;;;7.10;5.07;;;;;;;;;;6198239;28;20028;-80
2021/12/23 16:42:27;;;;;;;6.10;3.70;;;9.90;99.90;;;;;;6226122;28;20361;-80
2021/12/23 16:45:28;;;;;;;5.55;3.30;;;9.70;99.90;;;;;;6221342;28;20041;-80
2021/12/23 16:48:29;;;;;;;4.60;3.38;;;9.80;99.90;;;;;;6233077;28;20017;-80
2021/12/23 16:51:30;;;;;;;9.10;3.88;;;9.70;99.90;;;;;;6228842;28;20107;-83
2021/12/23 16:54:37;;;;;;;4.85;3.40;;;9.80;99.90;;;;;;6209397;28;20038;-82
2021/12/23 16:57:37;;;;;;;5.28;3.08;;;9.80;99.90;;;;;;6211140;28;20023;-81
2021/12/23 17:00:38;;;;;;;4.03;3.10;;;10.20;99.90;;;;;;6208900;28;20030;-79
2021/12/23 17:03:41;;;;;;;6.10;3.60;;;10.00;99.90;;;;;;6211039;28;20084;-81
2021/12/23 17:06:41;;;;;;;6.65;3.83;;;10.20;99.90;;;;;;6190439;28;20475;-83
2021/12/23 17:09:42;;;;;;;10.15;7.47;;;10.30;99.90;;;;;;6208729;28;20029;-85
2021/12/23 17:12:43;;;;;;;8.07;5.25;;;10.30;99.90;;;;;;6210589;28;20158;-85
2021/12/23 17:15:43;;;;;;;6.45;4.75;;;10.30;99.90;;;;;;6207319;28;20021;-82
2021/12/23 17:18:56;;;;;;;8.02;3.40;;;;;;;;;;6226479;28;20044;-81
2021/12/23 17:21:57;;;;;;;5.53;4.18;;;10.30;99.90;;;;;;6230982;28;20022;-78
2021/12/23 17:24:59;;;;;;;4.88;3.53;;;10.30;99.90;;;;;;6229418;28;20924;-80
2021/12/23 17:28:00;;;;;;;7.28;3.80;;;10.50;99.90;;;;;;6214676;28;20033;-79
2021/12/23 17:31:00;;;;;;;6.70;4.60;;;10.50;99.90;;;;;;6212094;28;20083;-80
2021/12/23 17:34:01;;;;;;;5.75;3.80;;;10.60;99.90;;;;;;6230949;28;20072;-78
2021/12/23 17:37:03;;;;;;;5.18;3.75;;;10.60;99.90;;;;;;6245239;28;20053;-78
2021/12/23 17:40:04;;;;;;;4.83;3.40;;;10.60;99.90;;;;;;6243734;28;20472;-80
2021/12/23 17:43:06;;;;;;;8.45;3.63;;;10.60;99.90;;;;;;6225621;28;20413;-79
2021/12/23 17:46:07;;;;;;;8.40;5.70;;;10.70;99.90;;;;;;6216661;28;20045;-81
2021/12/23 17:49:07;;;;;;;7.10;4.50;;;10.60;99.90;;;;;;6214102;28;20049;-80
2021/12/23 17:52:08;;;;;;;7.15;5.10;;;10.60;99.90;;;;;;6230083;28;20032;-81
2021/12/23 17:55:09;;;;;;;6.30;4.20;;;10.50;99.90;;;;;;6236835;28;20071;-78